Time;durP1;ratioP1;P1;durP2;ratioP2;P2;SDS_P1;SDS_P2;PMS_P1;PMS_P2;Temp;Humidity;BMP_temperature;BMP_pressure;BME280_temperature;BME280_humidity;BME280_pressure;Samples;Min_cycle;Max_cycle;Signal;HPM_P1;HPM_P2
2022/11/26 00:00:24;;;;;;;17.20;5.45;;;;;;;;;;6225086;22;20012;-89
2022/11/26 00:02:50;;;;;;;20.13;5.85;;;;;;;;;;6250144;22;20015;-90
2022/11/26 00:05:16;;;;;;;15.40;5.50;;;;;;;;;;6224982;22;20095;-92
2022/11/26 00:07:45;;;;;;;18.95;5.65;;;;;;;;;;6250417;22;20107;-91
2022/11/26 00:10:17;;;;;;;17.30;5.72;;;;;;;;;;6250533;22;20016;-90
2022/11/26 00:12:43;;;;;;;11.98;5.43;;;;;;;;;;6225153;22;20019;-93
2022/11/26 00:15:16;;;;;;;19.27;5.43;;;;;;;;;;6224980;22;20069;-89
2022/11/26 00:17:42;;;;;;;24.27;6.68;;;;;;;;;;6224949;22;20022;-90
2022/11/26 00:20:08;;;;;;;20.83;5.65;;;;;;;;;;6225373;22;20437;-95
2022/11/26 00:22:38;;;;;;;16.88;5.82;;;;;;;;;;6250369;22;20020;-93
2022/11/26 00:25:04;;;;;;;20.92;7.32;;;;;;;;;;6224783;22;20019;-88
2022/11/26 00:27:30;;;;;;;20.02;6.57;;;;;;;;;;6249896;22;20098;-88
2022/11/26 00:29:56;;;;;;;15.60;5.93;;;;;;;;;;6250201;22;20039;-89
2022/11/26 00:32:24;;;;;;;14.18;5.63;;;;;;;;;;6226157;22;20051;-90
2022/11/26 00:34:50;;;;;;;20.85;5.25;;;;;;;;;;6224177;22;20012;-90
2022/11/26 00:37:30;;;;;;;13.98;6.00;;;;;;;;;;6249863;22;20020;-94
2022/11/26 00:39:56;;;;;;;20.75;6.80;;;;;;;;;;6249842;22;20531;-92
2022/11/26 00:42:23;;;;;;;28.83;6.18;;;;;;;;;;6249781;22;20012;-95
2022/11/26 00:44:49;;;;;;;14.82;5.93;;;;;;;;;;6224565;22;20020;-95
2022/11/26 00:47:15;;;;;;;18.85;6.20;;;;;;;;;;6224674;22;20026;-89
2022/11/26 00:49:41;;;;;;;20.30;5.55;;;;;;;;;;6249989;22;20095;-89
2022/11/26 00:52:22;;;;;;;11.75;6.20;;;;;;;;;;6224622;22;20016;-89
2022/11/26 00:54:48;;;;;;;18.05;6.55;;;;;;;;;;6224851;22;20397;-89
2022/11/26 00:57:14;;;;;;;11.85;4.82;;;;;;;;;;6224688;22;20023;-89
2022/11/26 00:59:40;;;;;;;17.42;5.60;;;;;;;;;;6249853;22;20349;-88
2022/11/26 01:02:06;;;;;;;18.73;5.82;;;;;;;;;;6249654;22;20022;-87
2022/11/26 01:04:33;;;;;;;22.70;5.57;;;;;;;;;;6224596;22;20043;-88
2022/11/26 01:06:59;;;;;;;14.80;5.65;;;;;;;;;;6249989;22;20416;-88
2022/11/26 01:09:25;;;;;;;23.60;5.97;;;;;;;;;;6251895;22;20015;-88
2022/11/26 01:11:51;;;;;;;20.05;6.15;;;;;;;;;;6227902;22;20161;-91
2022/11/26 01:14:18;;;;;;;18.35;5.85;;;;;;;;;;6226845;22;20440;-89
2022/11/26 01:16:45;;;;;;;15.18;5.38;;;;;;;;;;6252334;22;20016;-90
2022/11/26 01:19:12;;;;;;;16.92;6.70;;;;;;;;;;6253480;22;20035;-91
2022/11/26 01:21:38;;;;;;;13.77;6.05;;;;;;;;;;6252123;22;20023;-89
2022/11/26 01:24:07;;;;;;;16.92;6.30;;;;;;;;;;6252242;22;20069;-93
2022/11/26 01:26:38;;;;;;;13.90;5.50;;;;;;;;;;6226809;22;20058;-92
2022/11/26 01:29:05;;;;;;;28.02;6.97;;;;;;;;;;6227366;22;20018;-90
2022/11/26 01:31:31;;;;;;;12.65;5.22;;;;;;;;;;6252663;22;20012;-89
2022/11/26 01:33:57;;;;;;;20.38;5.88;;;;;;;;;;6226794;22;20038;-90
2022/11/26 01:36:26;;;;;;;15.55;5.00;;;;;;;;;;6252374;22;20018;-94
2022/11/26 01:38:54;;;;;;;17.20;5.80;;;;;;;;;;6228047;22;20022;-92
2022/11/26 01:41:26;;;;;;;13.20;5.72;;;;;;;;;;6227159;22;20016;-90
2022/11/26 01:43:52;;;;;;;23.60;5.90;;;;;;;;;;6251910;22;20082;-92
2022/11/26 01:46:19;;;;;;;15.80;5.90;;;;;;;;;;6251912;22;20043;-89
2022/11/26 01:48:46;;;;;;;19.27;5.93;;;;;;;;;;6227294;22;20016;-91
2022/11/26 01:51:14;;;;;;;14.63;6.13;;;;;;;;;;6228084;22;20098;-90
2022/11/26 01:53:46;;;;;;;15.48;5.88;;;;;;;;;;6226815;22;20020;-90
2022/11/26 01:56:17;;;;;;;16.40;5.95;;;;;;;;;;6226713;22;20018;-94
2022/11/26 01:59:04;;;;;;;14.13;6.20;;;;;;;;;;6251961;22;20522;-90
2022/11/26 02:01:30;;;;;;;12.02;6.18;;;;;;;;;;6201605;22;20016;-92
2022/11/26 02:04:25;;;;;;;14.43;5.55;;;5.30;99.90;;;;;;6226361;22;20042;-89
2022/11/26 02:06:53;;;;;;;22.17;6.15;;;;;;;;;;6251678;22;20016;-88
2022/11/26 02:09:19;;;;;;;15.93;6.65;;;;;;;;;;6251189;22;20095;-90
2022/11/26 02:11:45;;;;;;;21.73;6.60;;;;;;;;;;6227425;22;20024;-87
2022/11/26 02:14:15;;;;;;;10.25;5.57;;;;;;;;;;6251332;22;20011;-88
2022/11/26 02:16:41;;;;;;;17.27;6.28;;;;;;;;;;6226952;22;20094;-88
2022/11/26 02:19:23;;;;;;;19.08;5.93;;;;;;;;;;6226817;22;20051;-88
2022/11/26 02:21:54;;;;;;;12.13;5.82;;;;;;;;;;6257120;22;20457;-91
2022/11/26 02:24:23;;;;;;;22.25;5.82;;;;;;;;;;6231924;22;20090;-90
2022/11/26 02:27:33;;;;;;;16.30;5.82;;;5.40;99.90;;;;;;6232296;22;20027;-96
2022/11/26 02:29:59;;;;;;;19.05;5.00;;;;;;;;;;6256089;22;20020;-90
2022/11/26 02:32:29;;;;;;;26.60;6.75;;;;;;;;;;6253642;22;20023;-89
2022/11/26 02:34:55;;;;;;;19.48;6.18;;;;;;;;;;6252883;22;20023;-89
2022/11/26 02:37:27;;;;;;;21.05;6.40;;;;;;;;;;6226808;22;20047;-94
2022/11/26 02:39:53;;;;;;;16.55;6.65;;;;;;;;;;6251801;22;20016;-95
2022/11/26 02:42:33;;;;;;;19.50;6.13;;;;;;;;;;6228181;22;20062;-95
2022/11/26 02:45:06;;;;;;;13.50;5.03;;;;;;;;;;6252462;22;20449;-95
2022/11/26 02:47:32;;;;;;;20.08;5.85;;;;;;;;;;6251660;22;20019;-96
2022/11/26 02:50:00;;;;;;;15.02;5.13;;;;;;;;;;6251127;22;20016;-89
2022/11/26 02:52:26;;;;;;;25.42;7.07;;;;;;;;;;6255804;22;20024;-89
2022/11/26 02:54:54;;;;;;;22.15;6.60;;;;;;;;;;6231128;22;20444;-89
2022/11/26 02:57:22;;;;;;;16.05;6.53;;;;;;;;;;6230777;22;20012;-89
2022/11/26 02:59:48;;;;;;;17.92;6.10;;;;;;;;;;6230497;22;20041;-89
2022/11/26 03:02:20;;;;;;;14.95;6.82;;;;;;;;;;6256629;22;20063;-89
2022/11/26 03:04:48;;;;;;;17.80;7.03;;;;;;;;;;6254233;22;20015;-90
2022/11/26 03:07:15;;;;;;;26.92;6.78;;;;;;;;;;6253241;22;20476;-92
2022/11/26 03:09:48;;;;;;;23.05;7.53;;;;;;;;;;6255226;22;20015;-89
2022/11/26 03:12:14;;;;;;;29.58;8.02;;;;;;;;;;6253200;22;20023;-91
2022/11/26 03:14:40;;;;;;;22.55;6.60;;;;;;;;;;6228174;22;20011;-89
2022/11/26 03:17:06;;;;;;;16.67;7.00;;;;;;;;;;6252333;22;20019;-88
2022/11/26 03:19:32;;;;;;;24.38;7.13;;;;;;;;;;6252159;22;20019;-88
2022/11/26 03:21:58;;;;;;;15.82;7.30;;;;;;;;;;6254813;22;20120;-91
2022/11/26 03:24:24;;;;;;;16.45;6.57;;;;;;;;;;6229280;22;20016;-88
2022/11/26 03:26:50;;;;;;;16.48;6.57;;;;;;;;;;6228277;22;20024;-92
2022/11/26 03:29:16;;;;;;;18.35;6.95;;;;;;;;;;6228688;22;20387;-89
2022/11/26 03:31:42;;;;;;;20.08;7.63;;;;;;;;;;6254243;22;20464;-94
2022/11/26 03:34:08;;;;;;;20.13;7.30;;;;;;;;;;6258475;22;20077;-89
2022/11/26 03:36:34;;;;;;;20.08;7.60;;;;;;;;;;6229256;22;20016;-92
2022/11/26 03:39:00;;;;;;;24.15;7.95;;;;;;;;;;6226771;22;20100;-90
2022/11/26 03:41:26;;;;;;;18.73;7.57;;;;;;;;;;6225991;22;20024;-91
2022/11/26 03:43:52;;;;;;;15.68;7.80;;;;;;;;;;6225379;22;20016;-91
2022/11/26 03:46:19;;;;;;;15.10;6.45;;;;;;;;;;6225198;22;20015;-90
2022/11/26 03:48:45;;;;;;;16.83;7.28;;;;;;;;;;6225362;22;20011;-89
2022/11/26 03:51:11;;;;;;;14.20;8.23;;;;;;;;;;6225141;22;20027;-89
2022/11/26 03:53:38;;;;;;;20.73;6.75;;;;;;;;;;6250973;22;20016;-91
2022/11/26 03:56:04;;;;;;;29.13;7.25;;;;;;;;;;6251422;22;20337;-90
2022/11/26 03:58:30;;;;;;;13.27;6.18;;;;;;;;;;6225682;22;20039;-90
2022/11/26 04:00:56;;;;;;;30.48;8.02;;;;;;;;;;6250542;22;20016;-92
2022/11/26 04:03:22;;;;;;;22.95;7.88;;;;;;;;;;6225049;22;20020;-90
2022/11/26 04:05:48;;;;;;;25.48;7.50;;;;;;;;;;6224853;22;20023;-91
2022/11/26 04:08:14;;;;;;;23.48;6.95;;;;;;;;;;6225048;22;20020;-89
2022/11/26 04:10:40;;;;;;;15.00;7.93;;;;;;;;;;6225276;22;20016;-89
2022/11/26 04:13:06;;;;;;;26.50;6.88;;;;;;;;;;6225054;22;20016;-89
2022/11/26 04:15:33;;;;;;;16.50;7.00;;;;;;;;;;6225239;22;20397;-91
2022/11/26 04:18:00;;;;;;;21.65;7.70;;;;;;;;;;6252401;22;20016;-90
2022/11/26 04:20:26;;;;;;;19.08;7.25;;;;;;;;;;6257021;22;20015;-88
2022/11/26 04:22:52;;;;;;;17.52;7.18;;;;;;;;;;6231829;22;20037;-88
2022/11/26 04:25:18;;;;;;;20.63;7.65;;;;;;;;;;6231635;22;20034;-91
2022/11/26 04:27:44;;;;;;;13.30;6.95;;;;;;;;;;6225387;22;20038;-90
2022/11/26 04:30:10;;;;;;;20.55;8.18;;;;;;;;;;6250577;22;20016;-90
2022/11/26 04:32:38;;;;;;;21.48;7.47;;;;;;;;;;6251941;22;20030;-91
2022/11/26 04:35:05;;;;;;;19.45;7.07;;;;;;;;;;6225038;22;20012;-93
2022/11/26 04:37:31;;;;;;;27.48;8.75;;;;;;;;;;6224971;22;20016;-90
2022/11/26 04:39:57;;;;;;;18.73;7.35;;;;;;;;;;6226175;22;20022;-91
2022/11/26 04:42:23;;;;;;;18.65;7.28;;;;;;;;;;6225032;22;20086;-91
2022/11/26 04:44:49;;;;;;;19.00;8.18;;;;;;;;;;6225485;22;20085;-95
2022/11/26 04:47:15;;;;;;;15.93;6.65;;;;;;;;;;6225010;22;20444;-90
2022/11/26 04:49:41;;;;;;;20.38;7.43;;;;;;;;;;6225015;22;20016;-89
2022/11/26 04:52:07;;;;;;;15.68;6.63;;;;;;;;;;6250209;22;20020;-90
2022/11/26 04:54:33;;;;;;;19.60;6.55;;;;;;;;;;6250844;22;20437;-90
2022/11/26 04:56:59;;;;;;;23.67;7.97;;;;;;;;;;6225513;22;20015;-90
2022/11/26 04:59:26;;;;;;;17.27;6.90;;;;;;;;;;6225073;22;20026;-89
2022/11/26 05:01:52;;;;;;;17.15;7.80;;;;;;;;;;6250198;22;20401;-93
2022/11/26 05:04:19;;;;;;;16.63;7.93;;;;;;;;;;6224710;22;20051;-89
2022/11/26 05:06:45;;;;;;;30.05;8.38;;;;;;;;;;6224714;22;20019;-94
2022/11/26 05:09:11;;;;;;;28.65;7.97;;;;;;;;;;6224991;22;20353;-89
2022/11/26 05:11:37;;;;;;;15.63;7.53;;;;;;;;;;6224742;22;20090;-89
2022/11/26 05:14:03;;;;;;;22.50;7.68;;;;;;;;;;6250761;22;20015;-90
2022/11/26 05:16:29;;;;;;;26.60;7.68;;;;;;;;;;6226249;22;20099;-90
2022/11/26 05:18:55;;;;;;;21.77;7.65;;;;;;;;;;6224701;22;20033;-90
2022/11/26 05:21:21;;;;;;;24.85;8.63;;;;;;;;;;6225272;22;20111;-92
2022/11/26 05:23:47;;;;;;;28.38;6.85;;;;;;;;;;6250062;22;20099;-92
2022/11/26 05:26:13;;;;;;;23.48;8.27;;;;;;;;;;6250049;22;20012;-89
2022/11/26 05:28:40;;;;;;;22.38;7.88;;;;;;;;;;6249901;22;20069;-93
2022/11/26 05:31:06;;;;;;;19.77;8.20;;;;;;;;;;6250172;22;20015;-90
2022/11/26 05:33:32;;;;;;;16.08;7.85;;;;;;;;;;6224708;22;20022;-90
2022/11/26 05:35:58;;;;;;;23.27;8.25;;;;;;;;;;6225660;22;20018;-90
2022/11/26 05:38:24;;;;;;;17.65;7.53;;;;;;;;;;6224658;22;20095;-93
2022/11/26 05:40:50;;;;;;;21.73;9.10;;;;;;;;;;6251429;22;20020;-94
2022/11/26 05:43:16;;;;;;;28.35;8.13;;;;;;;;;;6224813;22;20015;-92
2022/11/26 05:45:42;;;;;;;21.55;7.40;;;;;;;;;;6250428;22;20015;-95
2022/11/26 05:48:08;;;;;;;16.55;8.00;;;;;;;;;;6224668;22;20090;-89
2022/11/26 05:50:34;;;;;;;28.10;7.50;;;;;;;;;;6249983;22;20047;-91
2022/11/26 05:53:00;;;;;;;20.95;8.05;;;;;;;;;;6224594;22;20047;-94
2022/11/26 05:55:27;;;;;;;15.52;7.78;;;;;;;;;;6227388;22;20038;-92
2022/11/26 05:57:53;;;;;;;33.53;8.38;;;;;;;;;;6227063;22;20023;-91
2022/11/26 06:00:19;;;;;;;24.75;8.00;;;;;;;;;;6251661;22;20077;-92
2022/11/26 06:02:45;;;;;;;18.17;8.15;;;;;;;;;;6226375;22;20063;-90
2022/11/26 06:05:11;;;;;;;19.20;8.23;;;;;;;;;;6226479;22;20023;-89
2022/11/26 06:07:37;;;;;;;20.25;8.45;;;;;;;;;;6226842;22;20361;-90
2022/11/26 06:10:03;;;;;;;20.80;9.27;;;;;;;;;;6251952;22;20043;-88
2022/11/26 06:12:29;;;;;;;25.88;8.57;;;;;;;;;;6253296;22;20015;-91
2022/11/26 06:14:55;;;;;;;14.13;8.02;;;;;;;;;;6226468;22;20099;-92
2022/11/26 06:17:21;;;;;;;18.65;8.50;;;;;;;;;;6226303;22;20341;-89
2022/11/26 06:19:47;;;;;;;18.05;7.95;;;;;;;;;;6226467;22;20137;-89
2022/11/26 06:22:13;;;;;;;16.75;8.27;;;;;;;;;;6226456;22;20015;-92
2022/11/26 06:24:39;;;;;;;18.30;8.27;;;;;;;;;;6226237;22;20058;-88
2022/11/26 06:27:05;;;;;;;26.83;8.68;;;;;;;;;;6251754;22;20081;-93
2022/11/26 06:29:31;;;;;;;26.23;8.35;;;;;;;;;;6252058;22;20094;-89
2022/11/26 06:31:57;;;;;;;19.70;9.70;;;;;;;;;;6252682;22;20499;-93
2022/11/26 06:34:24;;;;;;;19.73;8.10;;;;;;;;;;6252486;22;20022;-96
2022/11/26 06:36:50;;;;;;;17.95;8.07;;;;;;;;;;6228036;22;20090;-89
2022/11/26 06:39:16;;;;;;;22.80;8.75;;;;;;;;;;6253153;22;20026;-91
2022/11/26 06:41:42;;;;;;;23.52;9.07;;;;;;;;;;6253213;22;20019;-90
2022/11/26 06:44:08;;;;;;;27.25;8.93;;;;;;;;;;6226259;22;20008;-92
2022/11/26 06:46:35;;;;;;;24.90;9.90;;;;;;;;;;6226266;22;20513;-89
2022/11/26 06:49:02;;;;;;;23.88;9.52;;;;;;;;;;6226638;22;20483;-88
2022/11/26 06:51:28;;;;;;;23.17;9.00;;;;;;;;;;6251222;22;20019;-91
2022/11/26 06:53:54;;;;;;;24.35;8.98;;;;;;;;;;6252799;22;20034;-96
2022/11/26 06:56:20;;;;;;;23.15;8.57;;;;;;;;;;6251582;22;20090;-92
2022/11/26 06:58:47;;;;;;;20.50;9.13;;;;;;;;;;6252146;22;20016;-95
2022/11/26 07:01:15;;;;;;;25.33;8.93;;;;;;;;;;6226142;22;20020;-91
2022/11/26 07:03:41;;;;;;;23.00;8.35;;;;;;;;;;6226621;22;20016;-88
2022/11/26 07:06:30;;;;;;;22.05;8.60;;;;;;;;;;6251593;22;20019;-90
2022/11/26 07:08:57;;;;;;;18.80;9.90;;;;;;;;;;6227292;22;20072;-90
2022/11/26 07:11:23;;;;;;;19.63;8.35;;;;;;;;;;6225654;22;20453;-89
2022/11/26 07:13:50;;;;;;;19.42;9.30;;;;;;;;;;6225759;22;20046;-92
2022/11/26 07:16:16;;;;;;;18.80;9.18;;;;;;;;;;6228148;22;20023;-90
2022/11/26 07:18:42;;;;;;;17.98;8.48;;;;;;;;;;6253470;22;20012;-89
2022/11/26 07:21:10;;;;;;;23.85;9.68;;;;;;;;;;6253490;22;20012;-91
2022/11/26 07:23:37;;;;;;;36.88;9.98;;;;;;;;;;6229315;22;20024;-89
2022/11/26 07:26:04;;;;;;;14.20;8.02;;;;;;;;;;6253400;22;20012;-93
2022/11/26 07:28:30;;;;;;;20.45;10.68;;;;;;;;;;6227807;22;20016;-92
2022/11/26 07:31:04;;;;;;;20.35;8.45;;;;;;;;;;6253199;22;20402;-90
2022/11/26 07:33:30;;;;;;;28.90;9.52;;;;;;;;;;6227741;22;20027;-93
2022/11/26 07:36:04;;;;;;;21.27;9.02;;;;;;;;;;6251248;22;20019;-93
2022/11/26 07:38:30;;;;;;;20.20;10.15;;;;;;;;;;6252612;22;20067;-93
2022/11/26 07:41:02;;;;;;;22.20;10.18;;;;;;;;;;6251630;22;20039;-91
2022/11/26 07:43:28;;;;;;;28.15;10.07;;;;;;;;;;6251249;22;20054;-92
2022/11/26 07:45:54;;;;;;;24.77;9.85;;;;;;;;;;6251530;22;20015;-90
2022/11/26 07:48:20;;;;;;;23.17;9.30;;;;;;;;;;6228609;22;20027;-92
2022/11/26 07:50:49;;;;;;;32.47;10.10;;;;;;;;;;6229739;22;20012;-89
2022/11/26 07:53:16;;;;;;;31.38;9.88;;;;;;;;;;6253215;22;20019;-89
2022/11/26 07:55:42;;;;;;;23.35;9.40;;;;;;;;;;6227957;22;20069;-88
2022/11/26 07:58:08;;;;;;;18.90;8.95;;;;;;;;;;6227844;22;20053;-90
2022/11/26 08:00:34;;;;;;;29.20;9.50;;;;;;;;;;6227546;22;20016;-87
2022/11/26 08:03:00;;;;;;;22.75;9.85;;;;;;;;;;6227625;22;20469;-91
2022/11/26 08:05:26;;;;;;;31.92;9.27;;;;;;;;;;6226008;22;20026;-86
2022/11/26 08:07:52;;;;;;;24.55;9.70;;;;;;;;;;6225504;22;20023;-86
2022/11/26 08:10:18;;;;;;;26.27;10.43;;;;;;;;;;6224730;22;20015;-86
2022/11/26 08:12:44;;;;;;;25.52;10.43;;;;;;;;;;6250470;22;20506;-85
2022/11/26 08:15:10;;;;;;;24.20;9.45;;;;;;;;;;6277207;22;20012;-86
2022/11/26 08:17:36;;;;;;;25.02;10.85;;;;;;;;;;6249739;22;20073;-86
2022/11/26 08:20:03;;;;;;;26.73;10.43;;;;;;;;;;6249965;22;20024;-87
2022/11/26 08:22:38;;;;;;;26.10;9.80;;;;;;;;;;6251261;22;20039;-86
2022/11/26 08:25:04;;;;;;;20.80;9.32;;;;;;;;;;6277243;22;20043;-87
2022/11/26 08:27:33;;;;;;;25.23;9.90;;;;;;;;;;6250009;22;20019;-87
2022/11/26 08:29:59;;;;;;;21.15;9.65;;;;;;;;;;6224581;22;20015;-87
2022/11/26 08:32:25;;;;;;;29.58;9.40;;;;;;;;;;6224524;22;20499;-87
2022/11/26 08:34:51;;;;;;;21.13;10.23;;;;;;;;;;6249826;22;20012;-86
2022/11/26 08:37:17;;;;;;;22.85;10.23;;;;;;;;;;6224902;22;20026;-86
2022/11/26 08:39:43;;;;;;;25.88;11.38;;;;;;;;;;6250013;22;20022;-87
2022/11/26 08:42:09;;;;;;;23.25;9.80;;;;;;;;;;6224915;22;20016;-90
2022/11/26 08:44:35;;;;;;;35.38;11.82;;;;;;;;;;6225158;22;20027;-89
2022/11/26 08:47:11;;;;;;;31.63;10.85;;;;;;;;;;6250475;22;20020;-88
2022/11/26 08:49:43;;;;;;;31.88;10.43;;;;;;;;;;6225605;22;20065;-88
2022/11/26 08:52:09;;;;;;;19.95;9.35;;;;;;;;;;6225312;22;20146;-89
2022/11/26 08:54:35;;;;;;;25.73;11.15;;;;;;;;;;6226266;22;20015;-88
2022/11/26 08:57:05;;;;;;;31.33;10.40;;;;;;;;;;6225963;22;20019;-91
2022/11/26 08:59:31;;;;;;;20.90;10.65;;;;;;;;;;6250230;22;20514;-88
2022/11/26 09:01:57;;;;;;;31.58;11.98;;;;;;;;;;6249778;22;20031;-90
2022/11/26 09:04:23;;;;;;;25.85;10.27;;;;;;;;;;6225593;22;20061;-89
2022/11/26 09:06:49;;;;;;;23.55;9.80;;;;;;;;;;6249640;22;20038;-89
2022/11/26 09:09:16;;;;;;;26.42;10.95;;;;;;;;;;6251079;22;20451;-88
2022/11/26 09:11:56;;;;;;;29.85;10.95;;;;;;;;;;6224436;22;20361;-89
2022/11/26 09:14:26;;;;;;;23.75;10.93;;;;;;;;;;6277090;22;20012;-90
2022/11/26 09:16:52;;;;;;;21.90;9.68;;;;;;;;;;6249919;22;20016;-91
2022/11/26 09:19:18;;;;;;;25.05;10.93;;;;;;;;;;6225865;22;20020;-89
2022/11/26 09:21:45;;;;;;;19.77;9.55;;;;;;;;;;6276810;22;20020;-88
2022/11/26 09:24:11;;;;;;;29.77;10.55;;;;;;;;;;6250211;22;20016;-88
2022/11/26 09:26:38;;;;;;;26.10;10.65;;;;;;;;;;6224509;22;20026;-91
2022/11/26 09:29:05;;;;;;;26.13;11.68;;;;;;;;;;6250867;22;20015;-93
2022/11/26 09:31:31;;;;;;;22.05;9.75;;;;;;;;;;6251849;22;20054;-89
2022/11/26 09:34:01;;;;;;;21.70;11.43;;;;;;;;;;6226668;22;20016;-89
2022/11/26 09:36:27;;;;;;;26.05;9.95;;;;;;;;;;6252374;22;20023;-93
2022/11/26 09:38:54;;;;;;;21.92;11.95;;;;;;;;;;6254652;22;20091;-89
2022/11/26 09:41:38;;;;;;;22.33;10.15;;;;;;;;;;6253691;22;20038;-89
2022/11/26 09:44:19;;;;;;;16.13;10.60;;;;;;;;;;6227260;22;20043;-89
2022/11/26 09:46:49;;;;;;;22.45;10.77;;;;;;;;;;6252976;22;20024;-89
2022/11/26 09:49:15;;;;;;;26.08;10.20;;;;;;;;;;6251796;22;20109;-88
2022/11/26 09:51:43;;;;;;;29.52;12.60;;;;;;;;;;6251856;22;20019;-88
2022/11/26 09:54:14;;;;;;;23.52;9.88;;;;;;;;;;6226003;22;20046;-88
2022/11/26 09:56:41;;;;;;;18.05;10.32;;;;;;;;;;6252481;22;20015;-89
2022/11/26 09:59:11;;;;;;;22.42;10.93;;;;;;;;;;6254152;22;20016;-88
2022/11/26 10:01:37;;;;;;;32.47;11.60;;;;;;;;;;6227046;22;20015;-89
2022/11/26 10:04:06;;;;;;;20.63;11.50;;;;;;;;;;6253485;22;20020;-92
2022/11/26 10:06:40;;;;;;;27.48;10.10;;;;;;;;;;6252065;22;20073;-88
2022/11/26 10:09:25;;;;;;;25.33;11.10;;;;;;;;;;6252800;22;20029;-89
2022/11/26 10:11:54;;;;;;;25.83;10.80;;;;;;;;;;6251940;22;20058;-89
2022/11/26 10:14:23;;;;;;;25.52;11.05;;;;;;;;;;6251801;22;20045;-88
2022/11/26 10:16:55;;;;;;;29.35;13.10;;;;;;;;;;6226539;22;20020;-88
2022/11/26 10:19:33;;;;;;;24.98;10.40;;;;;;;;;;6280118;22;20324;-88
2022/11/26 10:22:03;;;;;;;27.35;11.75;;;;;;;;;;6251946;22;20116;-89
2022/11/26 10:24:29;;;;;;;25.50;11.05;;;;;;;;;;6226900;22;20014;-91
2022/11/26 10:26:55;;;;;;;23.80;10.63;;;;;;;;;;6226782;22;20052;-90
2022/11/26 10:29:24;;;;;;;26.05;10.82;;;;;;;;;;6251810;22;20349;-92
2022/11/26 10:31:51;;;;;;;26.23;11.63;;;;;;;;;;6226331;22;20050;-91
2022/11/26 10:34:49;;;;;;;22.58;10.77;;;;;;;;;;6250996;22;20348;-90
2022/11/26 10:37:16;;;;;;;36.25;12.02;;;;;;;;;;6101667;23;20022;-92
2022/11/26 10:39:42;;;;;;;24.00;11.43;;;;;;;;;;6077224;23;20407;-90
2022/11/26 10:42:21;;;;;;;25.92;11.35;;;;;;;;;;6101091;23;20045;-91
2022/11/26 10:44:48;;;;;;;32.92;11.13;;;;;;;;;;6101082;23;20022;-89
2022/11/26 10:47:26;;;;;;;28.48;10.95;;;;;;;;;;6100858;23;20062;-90
2022/11/26 10:50:12;;;;;;;26.52;11.20;;;;;;;;;;6101539;23;20022;-88
2022/11/26 10:52:39;;;;;;;32.70;12.70;;;;;;;;;;6100680;23;20348;-89
2022/11/26 10:55:23;;;;;;;32.00;12.32;;;;;;;;;;6100201;23;20025;-88
2022/11/26 10:58:04;;;;;;;23.45;11.65;;;;;;;;;;6100502;23;20443;-89
2022/11/26 11:00:42;;;;;;;33.35;11.30;;;;;;;;;;6076843;23;20477;-89
2022/11/26 11:03:15;;;;;;;24.10;11.80;;;;;;;;;;6076556;23;20025;-89
2022/11/26 11:05:42;;;;;;;33.00;11.88;;;;;;;;;;6099992;23;20487;-89
2022/11/26 11:08:27;;;;;;;30.52;11.18;;;;;;;;;;6100781;23;20029;-89
2022/11/26 11:10:54;;;;;;;22.20;11.23;;;;;;;;;;6077458;23;20025;-88
2022/11/26 11:13:20;;;;;;;23.08;11.48;;;;;;;;;;6183892;22;20007;-90
2022/11/26 11:15:47;;;;;;;28.65;11.82;;;;;;;;;;6250721;22;20066;-90
2022/11/26 11:18:13;;;;;;;24.58;11.82;;;;;;;;;;6251198;22;20008;-90
2022/11/26 11:20:40;;;;;;;26.15;13.40;;;;;;;;;;6250450;22;20357;-88
2022/11/26 11:23:09;;;;;;;33.75;13.30;;;;;;;;;;6250848;22;20464;-89
2022/11/26 11:25:37;;;;;;;32.35;11.02;;;;;;;;;;6224934;22;20022;-90
2022/11/26 11:28:15;;;;;;;25.77;12.38;;;;;;;;;;6250344;22;20016;-89
2022/11/26 11:30:42;;;;;;;31.48;11.10;;;;;;;;;;6278220;22;20366;-89
2022/11/26 11:33:25;;;;;;;24.10;11.50;;;;;;;;;;6278657;22;20310;-89
2022/11/26 11:36:02;;;;;;;22.48;12.07;;;;;;;;;;6225550;22;20059;-89
2022/11/26 11:38:30;;;;;;;26.95;12.18;;;;;;;;;;6250287;22;20019;-88
2022/11/26 11:40:56;;;;;;;25.88;12.80;;;;;;;;;;6225807;22;20026;-89
2022/11/26 11:43:23;;;;;;;18.52;10.77;;;;;;;;;;6250175;22;20059;-88
2022/11/26 11:46:00;;;;;;;32.42;12.30;;;;;;;;;;6250272;22;20448;-89
2022/11/26 11:48:38;;;;;;;17.33;11.05;;;;;;;;;;6250326;22;20024;-88
2022/11/26 11:51:13;;;;;;;26.80;10.63;;;;;;;;;;6277149;22;20015;-90
2022/11/26 11:53:45;;;;;;;29.13;11.18;;;;;;;;;;6277687;22;20058;-94
2022/11/26 11:56:11;;;;;;;27.60;11.70;;;;;;;;;;6252004;22;20020;-92
2022/11/26 11:58:57;;;;;;;26.48;11.13;;;;;;;;;;6226755;22;20102;-91
2022/11/26 12:01:36;;;;;;;21.80;10.75;;;;;;;;;;6250412;22;20008;-91
2022/11/26 12:04:31;;;;;;;30.55;10.98;;;;;;;;;;6225867;22;20429;-88
2022/11/26 12:07:06;;;;;;;26.40;11.77;;;;;;;;;;6217818;22;20022;-88
2022/11/26 12:09:55;;;;;;;25.02;10.95;;;;;;;;;;6223998;22;20015;-88
2022/11/26 12:12:24;;;;;;;34.92;12.75;;;;;;;;;;6250788;22;20012;-88
2022/11/26 12:14:52;;;;;;;27.08;11.05;;;;;;;;;;6276639;22;20019;-87
2022/11/26 12:17:32;;;;;;;35.72;12.18;;;;;;;;;;6277444;22;20075;-88
2022/11/26 12:20:04;;;;;;;33.45;13.98;;;;;;;;;;6277470;22;20094;-89
2022/11/26 12:22:34;;;;;;;32.88;12.23;;;;;;;;;;6250992;22;20058;-89
2022/11/26 12:25:03;;;;;;;29.08;12.15;;;;;;;;;;6250987;22;20019;-87
2022/11/26 12:27:42;;;;;;;23.98;12.15;;;;;;;;;;6250755;22;20098;-87
2022/11/26 12:30:21;;;;;;;27.05;12.00;;;;;;;;;;6276955;22;20016;-87
2022/11/26 12:32:54;;;;;;;26.38;12.57;;;;;;;;;;6251004;22;20452;-87
2022/11/26 12:35:39;;;;;;;24.95;10.98;;;;;;;;;;6277077;22;20016;-89
2022/11/26 12:38:15;;;;;;;35.78;11.70;;;;;;;;;;6249934;22;20019;-87
2022/11/26 12:40:44;;;;;;;23.70;12.00;;;;;;;;;;6250166;22;20015;-87
2022/11/26 12:43:19;;;;;;;25.25;12.20;;;;;;;;;;6276958;22;20015;-87
2022/11/26 12:45:49;;;;;;;29.25;11.23;;;;;;;;;;6224297;22;20073;-89
2022/11/26 12:48:24;;;;;;;21.55;11.73;;;;;;;;;;6277063;22;20019;-89
2022/11/26 12:50:53;;;;;;;29.50;12.10;;;;;;;;;;6250388;22;20332;-89
2022/11/26 12:53:23;;;;;;;25.27;11.35;;;;;;;;;;6249648;22;20023;-88
2022/11/26 12:55:58;;;;;;;30.58;11.13;;;;;;;;;;6250821;22;20028;-88
2022/11/26 12:58:25;;;;;;;33.33;12.07;;;;;;;;;;6277400;22;20020;-87
2022/11/26 13:00:53;;;;;;;28.55;12.45;;;;;;;;;;6250123;22;20012;-88
2022/11/26 13:03:22;;;;;;;28.05;11.55;;;;;;;;;;6252594;22;20023;-88
2022/11/26 13:06:01;;;;;;;25.23;11.30;;;;;;;;;;6280022;22;20016;-88
2022/11/26 13:08:30;;;;;;;24.77;11.00;;;;;;;;;;6251936;22;20026;-87
2022/11/26 13:11:09;;;;;;;21.60;10.23;;;;;;;;;;6252019;22;20055;-87
2022/11/26 13:13:47;;;;;;;30.88;10.50;;;;;;;;;;6251935;22;20054;-87
2022/11/26 13:16:27;;;;;;;23.55;11.15;;;;;;;;;;6279334;22;20046;-88
2022/11/26 13:18:55;;;;;;;20.08;11.63;;;;;;;;;;6252728;22;20058;-87
2022/11/26 13:21:21;;;;;;;35.65;12.93;;;;;;;;;;6252685;22;20020;-87
2022/11/26 13:23:48;;;;;;;24.98;12.05;;;;;;;;;;6279217;22;20333;-87
2022/11/26 13:26:23;;;;;;;28.15;10.40;;;;;;;;;;6251684;22;20020;-87
2022/11/26 13:28:52;;;;;;;23.40;10.98;;;;;;;;;;6253185;22;20055;-87
2022/11/26 13:31:37;;;;;;;21.13;11.32;;;;;;;;;;6251604;22;20500;-87
2022/11/26 13:34:03;;;;;;;25.55;11.50;;;;;;;;;;6279627;22;20047;-87
2022/11/26 13:36:35;;;;;;;21.08;11.90;;;;;;;;;;6227392;22;20022;-87
2022/11/26 13:39:20;;;;;;;27.42;11.75;;;;;;;;;;6251643;22;20449;-86
2022/11/26 13:41:46;;;;;;;25.73;11.88;;;;;;;;;;6226150;22;20023;-87
2022/11/26 13:44:12;;;;;;;24.13;10.95;;;;;;;;;;6251333;22;20022;-87
2022/11/26 13:46:41;;;;;;;21.98;12.23;;;;;;;;;;6226151;22;20019;-87
2022/11/26 13:49:30;;;;;;;22.73;12.75;;;;;;;;;;6251835;22;20012;-86
2022/11/26 13:52:12;;;;;;;29.05;12.57;;;;;;;;;;6226710;22;20345;-87
2022/11/26 13:54:48;;;;;;;29.88;11.90;;;;;;;;;;6251311;22;20449;-86
2022/11/26 13:57:17;;;;;;;26.73;11.15;;;;;;;;;;6252156;22;20050;-87
2022/11/26 13:59:45;;;;;;;30.38;13.15;;;;;;;;;;6251979;22;20008;-87
2022/11/26 14:02:33;;;;;;;25.45;12.07;;;8.70;99.90;;;;;;6225737;22;20441;-88
2022/11/26 14:05:04;;;;;;;34.08;11.68;;;;;;;;;;6225716;22;20020;-87
2022/11/26 14:07:30;;;;;;;20.55;11.00;;;;;;;;;;6226349;22;20016;-88
2022/11/26 14:09:58;;;;;;;23.65;11.57;;;;;;;;;;6251107;22;20053;-88
2022/11/26 14:12:44;;;;;;;22.45;11.18;;;;;;;;;;6225916;22;20022;-87
2022/11/26 14:15:41;;;;;;;26.98;11.20;;;8.70;99.90;;;;;;6250336;22;20344;-86
2022/11/26 14:18:12;;;;;;;25.88;11.38;;;8.60;99.90;;;;;;6250833;22;20051;-86
2022/11/26 14:20:56;;;;;;;26.88;10.95;;;;;;;;;;6251202;22;20087;-87
2022/11/26 14:23:43;;;;;;;28.35;12.90;;;;;;;;;;6226989;22;20024;-87
2022/11/26 14:26:11;;;;;;;25.92;12.57;;;;;;;;;;6225476;22;20459;-86
2022/11/26 14:28:37;;;;;;;30.13;12.35;;;;;;;;;;6225451;22;20016;-86
2022/11/26 14:31:07;;;;;;;20.10;10.65;;;;;;;;;;6250966;22;20015;-86
2022/11/26 14:33:33;;;;;;;25.60;12.23;;;;;;;;;;6250761;22;20091;-88
2022/11/26 14:35:59;;;;;;;28.42;10.55;;;;;;;;;;6225284;22;20457;-87